createdAt,value
2017-10-19T00:00:42.665Z,0
2017-10-19T00:02:04.509Z,0
2017-10-19T00:03:26.704Z,0
2017-10-19T00:04:48.577Z,0
2017-10-19T00:06:11.066Z,0
2017-10-19T00:07:33.543Z,0
2017-10-19T00:08:55.366Z,0
2017-10-19T00:10:17.262Z,0
2017-10-19T00:11:39.435Z,0
2017-10-19T00:13:01.626Z,0
2017-10-19T00:14:23.471Z,0
2017-10-19T00:15:45.662Z,0
2017-10-19T00:17:07.908Z,0
2017-10-19T00:18:29.769Z,0
2017-10-19T00:19:52.099Z,0
2017-10-19T00:21:13.949Z,0
2017-10-19T00:22:36.459Z,0
2017-10-19T00:23:59.251Z,0
2017-10-19T00:25:20.770Z,0
2017-10-19T00:26:42.283Z,0
2017-10-19T00:28:03.462Z,0
2017-10-19T00:29:25.647Z,0
2017-10-19T00:30:48.230Z,0
2017-10-19T00:32:09.461Z,0
2017-10-19T00:33:32.000Z,0
2017-10-19T00:34:53.867Z,0
2017-10-19T00:36:16.175Z,0
2017-10-19T00:37:38.096Z,0
2017-10-19T00:39:00.353Z,0
2017-10-19T00:40:22.866Z,0
2017-10-19T00:41:45.052Z,0
2017-10-19T00:43:06.586Z,0
2017-10-19T00:44:28.138Z,0
2017-10-19T00:45:51.046Z,0
2017-10-19T00:47:12.240Z,0
2017-10-19T00:48:34.133Z,0
2017-10-19T00:49:56.328Z,0
2017-10-19T00:51:17.855Z,0
2017-10-19T00:52:40.036Z,0
2017-10-19T00:54:01.637Z,0
2017-10-19T00:55:23.855Z,0
2017-10-19T00:56:45.371Z,0
2017-10-19T00:58:07.229Z,0
2017-10-19T00:59:29.779Z,0
2017-10-19T01:00:51.976Z,0
2017-10-19T01:02:13.825Z,0
2017-10-19T01:03:35.674Z,0
2017-10-19T01:04:57.213Z,0
2017-10-19T01:06:19.396Z,0
2017-10-19T01:07:41.290Z,0
2017-10-19T01:09:03.579Z,0
2017-10-19T01:10:25.805Z,0
2017-10-19T01:11:47.391Z,0
2017-10-19T01:13:09.284Z,0
2017-10-19T01:14:30.848Z,0
2017-10-19T01:15:53.071Z,0
2017-10-19T01:17:14.928Z,0
2017-10-19T01:18:36.745Z,0
2017-10-19T01:19:59.022Z,0
2017-10-19T01:21:20.526Z,0
2017-10-19T01:22:42.703Z,0
2017-10-19T01:24:04.865Z,0
2017-10-19T01:25:27.063Z,0
2017-10-19T01:26:48.943Z,0
2017-10-19T01:28:10.462Z,0
2017-10-19T01:29:32.941Z,0
2017-10-19T01:30:54.787Z,0
2017-10-19T01:32:17.319Z,0
2017-10-19T01:33:39.182Z,0
2017-10-19T01:35:01.813Z,0
2017-10-19T01:36:23.985Z,0
2017-10-19T01:37:46.166Z,0
2017-10-19T01:39:08.352Z,0
2017-10-19T01:40:30.565Z,0
2017-10-19T01:41:52.084Z,0
2017-10-19T01:43:14.051Z,0
2017-10-19T01:44:36.233Z,0
2017-10-19T01:45:58.483Z,0
2017-10-19T01:47:20.341Z,0
2017-10-19T01:48:41.925Z,0
2017-10-19T01:50:04.447Z,0
2017-10-19T01:51:26.659Z,0
2017-10-19T01:52:48.471Z,0
2017-10-19T01:54:11.033Z,0
2017-10-19T01:55:32.163Z,0
2017-10-19T01:56:54.395Z,0
2017-10-19T01:58:15.903Z,0
2017-10-19T01:59:38.524Z,0
2017-10-19T02:01:00.023Z,0
2017-10-19T02:02:22.186Z,0
2017-10-19T02:03:44.363Z,0
2017-10-19T02:05:05.884Z,0
2017-10-19T02:06:27.093Z,0
2017-10-19T02:07:48.859Z,0
2017-10-19T02:09:10.693Z,0
2017-10-19T02:10:32.893Z,0
2017-10-19T02:11:54.061Z,0
2017-10-19T02:13:15.909Z,0
2017-10-19T02:14:38.422Z,0
2017-10-19T02:16:01.191Z,0
2017-10-19T02:17:23.414Z,0
2017-10-19T02:18:45.175Z,0
2017-10-19T02:20:07.075Z,0
2017-10-19T02:21:28.927Z,0
2017-10-19T02:22:50.854Z,0
2017-10-19T02:24:13.364Z,0
2017-10-19T02:25:35.220Z,0
2017-10-19T02:26:57.062Z,0
2017-10-19T02:28:19.280Z,0
2017-10-19T02:29:41.424Z,0
2017-10-19T02:31:03.271Z,0
2017-10-19T02:32:25.203Z,0
2017-10-19T02:33:47.027Z,0
2017-10-19T02:35:09.234Z,0
2017-10-19T02:36:31.155Z,0
2017-10-19T02:37:52.669Z,0
2017-10-19T02:39:14.509Z,0
2017-10-19T02:40:36.755Z,0
2017-10-19T02:41:58.918Z,0
2017-10-19T02:43:21.575Z,0
2017-10-19T02:44:43.782Z,0
2017-10-19T02:46:05.753Z,0
2017-10-19T02:47:27.611Z,0
2017-10-19T02:48:49.833Z,0
2017-10-19T02:50:11.371Z,0
2017-10-19T02:51:33.528Z,0
2017-10-19T02:52:55.712Z,0
2017-10-19T02:54:17.553Z,0
2017-10-19T02:55:39.103Z,0
2017-10-19T02:57:00.953Z,0
2017-10-19T02:58:23.174Z,0
2017-10-19T02:59:45.031Z,0
2017-10-19T03:01:07.211Z,0
2017-10-19T03:02:29.050Z,0
2017-10-19T03:03:50.889Z,0
2017-10-19T03:05:12.144Z,0
2017-10-19T03:06:33.988Z,0
2017-10-19T03:07:56.466Z,0
2017-10-19T03:09:17.981Z,0
2017-10-19T03:10:40.514Z,0
2017-10-19T03:12:02.371Z,0
2017-10-19T03:13:24.247Z,0
2017-10-19T03:14:45.775Z,0
2017-10-19T03:16:07.961Z,0
2017-10-19T03:17:30.155Z,0
2017-10-19T03:18:52.925Z,0
2017-10-19T03:20:14.753Z,0
2017-10-19T03:21:36.940Z,0
2017-10-19T03:22:58.468Z,0
2017-10-19T03:24:20.305Z,0
2017-10-19T03:25:41.934Z,0
2017-10-19T03:27:03.475Z,0
2017-10-19T03:28:25.674Z,0
2017-10-19T03:29:48.184Z,0
2017-10-19T03:31:10.650Z,0
2017-10-19T03:32:32.825Z,0
2017-10-19T03:33:55.002Z,0
2017-10-19T03:35:17.483Z,0
2017-10-19T03:36:39.338Z,0
2017-10-19T03:38:01.855Z,0
2017-10-19T03:39:23.823Z,0
2017-10-19T03:40:45.342Z,0
2017-10-19T03:42:06.853Z,0
2017-10-19T03:43:28.154Z,0
2017-10-19T03:44:49.666Z,0
2017-10-19T03:46:12.184Z,0
2017-10-19T03:47:33.697Z,0
2017-10-19T03:48:55.206Z,0
2017-10-19T03:50:16.385Z,0
2017-10-19T03:51:38.810Z,0
2017-10-19T03:53:01.005Z,0
2017-10-19T03:54:23.521Z,0
2017-10-19T03:55:45.463Z,0
2017-10-19T03:57:07.683Z,0
2017-10-19T03:58:29.514Z,0
2017-10-19T03:59:51.023Z,0
2017-10-19T04:01:13.195Z,0
2017-10-19T04:02:35.404Z,0
2017-10-19T04:03:57.444Z,0
2017-10-19T04:05:19.642Z,0
2017-10-19T04:06:42.149Z,0
2017-10-19T04:08:04.335Z,0
2017-10-19T04:09:26.180Z,0
2017-10-19T04:10:48.400Z,0
2017-10-19T04:12:09.581Z,0
2017-10-19T04:13:32.603Z,0
2017-10-19T04:14:54.114Z,0
2017-10-19T04:16:16.312Z,0
2017-10-19T04:17:38.482Z,0
2017-10-19T04:19:00.473Z,0
2017-10-19T04:20:22.083Z,0
2017-10-19T04:21:44.628Z,0
2017-10-19T04:23:06.806Z,0
2017-10-19T04:24:29.004Z,0
2017-10-19T04:25:50.985Z,0
2017-10-19T04:27:12.827Z,0
2017-10-19T04:28:34.709Z,0
2017-10-19T04:29:56.882Z,0
2017-10-19T04:31:18.773Z,0
2017-10-19T04:32:39.951Z,0
2017-10-19T04:34:02.470Z,0
2017-10-19T04:35:24.329Z,0
2017-10-19T04:36:46.228Z,0
2017-10-19T04:38:07.749Z,0
2017-10-19T04:39:29.265Z,0
2017-10-19T04:40:51.515Z,0
2017-10-19T04:42:12.696Z,0
2017-10-19T04:43:34.653Z,0
2017-10-19T04:44:56.833Z,0
2017-10-19T04:46:18.679Z,0
2017-10-19T04:47:40.873Z,0
2017-10-19T04:49:02.718Z,0
2017-10-19T04:50:24.554Z,0
2017-10-19T04:51:46.790Z,0
2017-10-19T04:53:09.051Z,0
2017-10-19T04:54:30.896Z,0
2017-10-19T04:55:53.083Z,0
2017-10-19T04:57:15.335Z,0
2017-10-19T04:58:37.511Z,0
2017-10-19T04:59:59.353Z,0
2017-10-19T05:01:20.896Z,0
2017-10-19T05:02:43.073Z,0
2017-10-19T05:04:04.912Z,0
2017-10-19T05:05:27.185Z,0
2017-10-19T05:06:49.372Z,0
2017-10-19T05:08:11.305Z,0
2017-10-19T05:09:33.546Z,0
2017-10-19T05:10:55.736Z,0
2017-10-19T05:12:17.913Z,0
2017-10-19T05:13:40.729Z,0
2017-10-19T05:15:02.691Z,0
2017-10-19T05:16:24.549Z,0
2017-10-19T05:17:47.083Z,0
2017-10-19T05:19:09.604Z,0
2017-10-19T05:20:31.461Z,0
2017-10-19T05:21:53.656Z,0
2017-10-19T05:23:16.183Z,0
2017-10-19T05:24:38.022Z,0
2017-10-19T05:25:59.858Z,0
2017-10-19T05:27:21.367Z,0
2017-10-19T05:28:43.547Z,4
2017-10-19T05:30:06.057Z,0
2017-10-19T05:31:27.934Z,4
2017-10-19T05:32:50.460Z,4
2017-10-19T05:34:12.681Z,4
2017-10-19T05:35:34.879Z,8
2017-10-19T05:36:57.061Z,8
2017-10-19T05:38:19.252Z,8
2017-10-19T05:39:41.497Z,8
2017-10-19T05:41:03.699Z,16
2017-10-19T05:42:25.860Z,16
2017-10-19T05:43:47.460Z,20
2017-10-19T05:45:09.290Z,24
2017-10-19T05:46:31.374Z,32
2017-10-19T05:47:53.964Z,36
2017-10-19T05:49:16.164Z,48
2017-10-19T05:50:38.075Z,52
2017-10-19T05:52:00.223Z,64
2017-10-19T05:53:22.111Z,76
2017-10-19T05:54:44.645Z,88
2017-10-19T05:56:06.294Z,104
2017-10-19T05:57:28.811Z,116
2017-10-19T05:58:50.653Z,128
2017-10-19T06:00:12.514Z,144
2017-10-19T06:01:34.433Z,160
2017-10-19T06:02:55.984Z,172
2017-10-19T06:04:17.837Z,188
2017-10-19T06:05:39.682Z,200
2017-10-19T06:07:01.251Z,204
2017-10-19T06:08:22.772Z,224
2017-10-19T06:09:44.973Z,284
2017-10-19T06:11:07.163Z,300
2017-10-19T06:12:29.683Z,332
2017-10-19T06:13:51.684Z,372
2017-10-19T06:15:13.204Z,408
2017-10-19T06:16:35.388Z,452
2017-10-19T06:17:56.923Z,492
2017-10-19T06:19:18.805Z,532
2017-10-19T06:20:41.447Z,596
2017-10-19T06:22:03.623Z,648
2017-10-19T06:23:24.913Z,716
2017-10-19T06:24:46.674Z,784
2017-10-19T06:26:09.259Z,880
2017-10-19T06:27:31.117Z,980
2017-10-19T06:28:53.303Z,1096
2017-10-19T06:30:15.166Z,1200
2017-10-19T06:31:36.683Z,1344
2017-10-19T06:32:58.901Z,1464
2017-10-19T06:34:21.254Z,1572
2017-10-19T06:35:43.453Z,1648
2017-10-19T06:37:05.959Z,1724
2017-10-19T06:38:28.083Z,1820
2017-10-19T06:39:50.589Z,1904
2017-10-19T06:41:13.123Z,2004
2017-10-19T06:42:34.632Z,2072
2017-10-19T06:43:56.155Z,2152
2017-10-19T06:45:17.671Z,2192
2017-10-19T06:46:39.843Z,2256
2017-10-19T06:48:01.727Z,2300
2017-10-19T06:49:23.892Z,2404
2017-10-19T06:50:45.095Z,2472
2017-10-19T06:52:06.991Z,2516
2017-10-19T06:53:29.237Z,2564
2017-10-19T06:54:51.101Z,2592
2017-10-19T06:56:13.295Z,2620
2017-10-19T06:57:34.748Z,2648
2017-10-19T06:58:56.939Z,2684
2017-10-19T07:00:18.443Z,2764
2017-10-19T07:01:40.626Z,2948
2017-10-19T07:03:03.256Z,3092
2017-10-19T07:04:25.916Z,3212
2017-10-19T07:05:48.136Z,3356
2017-10-19T07:07:09.984Z,3340
2017-10-19T07:08:32.453Z,3304
2017-10-19T07:09:54.294Z,3316
2017-10-19T07:11:16.473Z,3396
2017-10-19T07:12:38.643Z,3660
2017-10-19T07:14:00.826Z,3896
2017-10-19T07:15:23.415Z,4208
2017-10-19T07:16:45.409Z,4328
2017-10-19T07:18:07.271Z,4416
2017-10-19T07:19:29.518Z,4612
2017-10-19T07:20:51.034Z,4640
2017-10-19T07:22:13.231Z,4620
2017-10-19T07:23:35.752Z,4528
2017-10-19T07:24:57.933Z,4604
2017-10-19T07:26:20.188Z,4856
2017-10-19T07:27:42.706Z,4768
2017-10-19T07:29:04.983Z,4952
2017-10-19T07:30:27.625Z,5056
2017-10-19T07:31:50.139Z,5276
2017-10-19T07:33:11.983Z,5432
2017-10-19T07:34:34.173Z,5216
2017-10-19T07:35:55.672Z,5432
2017-10-19T07:37:17.825Z,5720
2017-10-19T07:38:40.108Z,5776
2017-10-19T07:40:02.634Z,6028
2017-10-19T07:41:24.490Z,5920
2017-10-19T07:42:46.817Z,5856
2017-10-19T07:44:08.663Z,6372
2017-10-19T07:45:30.835Z,6416
2017-10-19T07:46:52.018Z,6432
2017-10-19T07:48:14.208Z,6160
2017-10-19T07:49:35.723Z,6112
2017-10-19T07:50:57.583Z,5836
2017-10-19T07:52:19.763Z,5852
2017-10-19T07:53:41.959Z,5900
2017-10-19T07:55:03.819Z,6132
2017-10-19T07:56:25.996Z,5936
2017-10-19T07:57:48.183Z,5904
2017-10-19T07:59:10.406Z,5756
2017-10-19T08:00:32.662Z,5464
2017-10-19T08:01:54.175Z,5452
2017-10-19T08:03:16.111Z,5140
2017-10-19T08:04:38.631Z,5192
2017-10-19T08:06:00.519Z,5276
2017-10-19T08:07:21.703Z,5368
2017-10-19T08:08:43.872Z,5312
2017-10-19T08:10:06.069Z,5340
2017-10-19T08:11:28.609Z,5768
2017-10-19T08:12:51.134Z,5612
2017-10-19T08:14:12.998Z,6168
2017-10-19T08:15:35.185Z,5980
2017-10-19T08:16:57.062Z,6336
2017-10-19T08:18:18.899Z,6168
2017-10-19T08:19:41.046Z,6172
2017-10-19T08:21:02.912Z,6464
2017-10-19T08:22:25.115Z,6300
2017-10-19T08:23:46.999Z,6404
2017-10-19T08:25:09.172Z,6468
2017-10-19T08:26:31.002Z,6540
2017-10-19T08:27:53.252Z,6680
2017-10-19T08:29:15.205Z,6864
2017-10-19T08:30:37.055Z,6576
2017-10-19T08:31:59.234Z,6404
2017-10-19T08:33:21.093Z,6456
2017-10-19T08:34:42.609Z,6148
2017-10-19T08:36:04.128Z,6544
2017-10-19T08:37:26.321Z,7084
2017-10-19T08:38:48.277Z,7336
2017-10-19T08:40:10.148Z,7656
2017-10-19T08:41:32.654Z,7884
2017-10-19T08:42:54.863Z,7976
2017-10-19T08:44:17.063Z,7664
2017-10-19T08:45:39.253Z,7804
2017-10-19T08:47:01.478Z,7532
2017-10-19T08:48:22.748Z,7972
2017-10-19T08:49:44.942Z,7456
2017-10-19T08:51:07.128Z,8252
2017-10-19T08:52:28.989Z,7908
2017-10-19T08:53:50.853Z,8620
2017-10-19T08:55:13.053Z,8220
2017-10-19T08:56:34.911Z,8552
2017-10-19T08:57:57.422Z,9016
2017-10-19T08:59:19.283Z,9144
2017-10-19T09:00:41.801Z,8524
2017-10-19T09:02:03.987Z,9628
2017-10-19T09:03:26.545Z,10376
2017-10-19T09:04:49.055Z,9820
2017-10-19T09:06:11.728Z,10000
2017-10-19T09:07:33.925Z,9404
2017-10-19T09:08:55.783Z,9176
2017-10-19T09:10:18.368Z,9780
2017-10-19T09:11:39.880Z,9476
2017-10-19T09:13:02.061Z,9848
2017-10-19T09:14:23.966Z,9156
2017-10-19T09:15:46.492Z,9396
2017-10-19T09:17:08.678Z,9528
2017-10-19T09:18:30.533Z,9212
2017-10-19T09:19:53.035Z,9804
2017-10-19T09:21:14.225Z,10104
2017-10-19T09:22:36.416Z,8952
2017-10-19T09:23:58.260Z,9608
2017-10-19T09:25:20.449Z,8828
2017-10-19T09:26:41.983Z,9936
2017-10-19T09:28:04.170Z,9288
2017-10-19T09:29:26.054Z,9784
2017-10-19T09:30:48.263Z,8732
2017-10-19T09:32:10.784Z,7900
2017-10-19T09:33:32.961Z,7288
2017-10-19T09:34:55.482Z,7296
2017-10-19T09:36:17.714Z,7300
2017-10-19T09:37:40.211Z,6876
2017-10-19T09:39:02.077Z,6972
2017-10-19T09:40:23.932Z,7104
2017-10-19T09:41:45.562Z,7328
2017-10-19T09:43:07.739Z,6968
2017-10-19T09:44:28.921Z,6952
2017-10-19T09:45:51.481Z,6944
2017-10-19T09:47:13.434Z,6792
2017-10-19T09:48:35.421Z,6784
2017-10-19T09:49:57.605Z,6760
2017-10-19T09:51:19.798Z,6836
2017-10-19T09:52:41.663Z,6960
2017-10-19T09:54:03.858Z,7076
2017-10-19T09:55:25.381Z,7152
2017-10-19T09:56:47.560Z,7324
2017-10-19T09:58:09.759Z,7520
2017-10-19T09:59:32.284Z,7796
2017-10-19T10:00:54.130Z,8092
2017-10-19T10:02:16.331Z,8496
2017-10-19T10:03:38.538Z,8896
2017-10-19T10:05:00.743Z,9220
2017-10-19T10:06:22.598Z,9428
2017-10-19T10:07:44.114Z,9528
2017-10-19T10:09:05.616Z,9500
2017-10-19T10:10:28.132Z,9344
2017-10-19T10:11:49.988Z,9084
2017-10-19T10:13:12.264Z,8804
2017-10-19T10:14:34.105Z,8400
2017-10-19T10:15:56.278Z,7896
2017-10-19T10:17:18.568Z,7528
2017-10-19T10:18:41.101Z,7244
2017-10-19T10:20:03.417Z,7004
2017-10-19T10:21:25.323Z,6844
2017-10-19T10:22:47.549Z,6720
2017-10-19T10:24:09.383Z,6516
2017-10-19T10:25:31.665Z,6360
2017-10-19T10:26:54.261Z,6340
2017-10-19T10:28:16.526Z,6176
2017-10-19T10:29:38.750Z,6000
2017-10-19T10:31:00.598Z,5948
2017-10-19T10:32:22.455Z,5976
2017-10-19T10:33:44.969Z,6072
2017-10-19T10:35:06.487Z,6120
2017-10-19T10:36:28.597Z,6104
2017-10-19T10:37:50.763Z,6076
2017-10-19T10:39:12.981Z,6468
2017-10-19T10:40:34.816Z,7316
2017-10-19T10:41:57.326Z,7672
2017-10-19T10:43:18.835Z,7892
2017-10-19T10:44:40.391Z,8096
2017-10-19T10:46:01.903Z,8152
2017-10-19T10:47:23.757Z,8144
2017-10-19T10:48:46.273Z,8172
2017-10-19T10:50:08.470Z,8168
2017-10-19T10:51:30.644Z,8112
2017-10-19T10:52:52.237Z,8104
2017-10-19T10:54:14.093Z,7996
2017-10-19T10:55:35.954Z,7924
2017-10-19T10:56:57.923Z,7820
2017-10-19T10:58:20.135Z,7692
2017-10-19T10:59:42.293Z,7560
2017-10-19T11:01:04.541Z,7380
2017-10-19T11:02:26.072Z,7352
2017-10-19T11:03:48.616Z,7344
2017-10-19T11:05:10.832Z,7356
2017-10-19T11:06:32.359Z,7364
2017-10-19T11:07:54.200Z,7356
2017-10-19T11:09:16.794Z,7400
2017-10-19T11:10:38.987Z,7440
2017-10-19T11:12:01.524Z,7476
2017-10-19T11:13:23.460Z,7548
2017-10-19T11:14:45.675Z,7620
2017-10-19T11:16:08.416Z,7696
2017-10-19T11:17:30.260Z,7796
2017-10-19T11:18:52.799Z,7888
2017-10-19T11:20:14.317Z,7984
2017-10-19T11:21:36.505Z,8048
2017-10-19T11:22:59.039Z,8120
2017-10-19T11:24:21.735Z,8116
2017-10-19T11:25:44.256Z,8108
2017-10-19T11:27:06.552Z,8072
2017-10-19T11:28:28.760Z,8060
2017-10-19T11:29:50.280Z,8036
2017-10-19T11:31:12.240Z,7876
2017-10-19T11:32:34.089Z,7876
2017-10-19T11:33:56.603Z,7944
2017-10-19T11:35:19.234Z,7944
2017-10-19T11:36:40.416Z,7972
2017-10-19T11:38:02.674Z,8024
2017-10-19T11:39:24.596Z,8060
2017-10-19T11:40:46.466Z,8060
2017-10-19T11:42:08.649Z,8112
2017-10-19T11:43:30.986Z,8172
2017-10-19T11:44:53.176Z,8240
2017-10-19T11:46:15.039Z,8324
2017-10-19T11:47:37.573Z,8492
2017-10-19T11:48:59.422Z,8680
2017-10-19T11:50:20.646Z,8808
2017-10-19T11:51:42.516Z,8932
2017-10-19T11:53:05.366Z,8972
2017-10-19T11:54:27.243Z,9044
2017-10-19T11:55:48.753Z,9052
2017-10-19T11:57:11.453Z,8968
2017-10-19T11:58:33.577Z,8980
2017-10-19T11:59:55.416Z,8904
2017-10-19T12:01:17.944Z,8844
2017-10-19T12:02:39.189Z,8788
2017-10-19T12:04:01.394Z,8824
2017-10-19T12:05:23.242Z,8820
2017-10-19T12:06:45.084Z,8776
2017-10-19T12:08:07.274Z,8708
2017-10-19T12:09:29.237Z,8676
2017-10-19T12:10:51.812Z,8652
2017-10-19T12:12:13.692Z,8592
2017-10-19T12:13:35.886Z,8568
2017-10-19T12:14:57.773Z,8484
2017-10-19T12:16:19.607Z,8436
2017-10-19T12:17:41.813Z,8308
2017-10-19T12:19:04.039Z,8228
2017-10-19T12:20:26.454Z,8048
2017-10-19T12:21:48.673Z,7844
2017-10-19T12:23:10.857Z,7756
2017-10-19T12:24:33.041Z,7660
2017-10-19T12:25:55.221Z,7560
2017-10-19T12:27:17.886Z,7492
2017-10-19T12:28:40.443Z,7444
2017-10-19T12:30:02.415Z,7412
2017-10-19T12:31:24.591Z,7356
2017-10-19T12:32:47.172Z,7300
2017-10-19T12:34:09.424Z,7304
2017-10-19T12:35:31.304Z,7384
2017-10-19T12:36:53.491Z,7480
2017-10-19T12:38:15.489Z,7596
2017-10-19T12:39:37.802Z,7668
2017-10-19T12:40:59.998Z,7696
2017-10-19T12:42:21.863Z,7660
2017-10-19T12:43:43.737Z,7612
2017-10-19T12:45:06.281Z,7536
2017-10-19T12:46:28.135Z,7488
2017-10-19T12:47:50.074Z,7448
2017-10-19T12:49:12.595Z,7360
2017-10-19T12:50:34.894Z,7300
2017-10-19T12:51:57.432Z,7236
2017-10-19T12:53:20.044Z,7224
2017-10-19T12:54:42.574Z,7152
2017-10-19T12:56:04.770Z,7072
2017-10-19T12:57:26.958Z,6996
2017-10-19T12:58:49.268Z,6892
2017-10-19T13:00:11.134Z,6804
2017-10-19T13:01:33.653Z,6764
2017-10-19T13:02:55.873Z,6780
2017-10-19T13:04:18.387Z,6868
2017-10-19T13:05:40.993Z,6908
2017-10-19T13:07:02.526Z,6968
2017-10-19T13:08:25.043Z,7048
2017-10-19T13:09:46.917Z,7168
2017-10-19T13:11:09.550Z,7272
2017-10-19T13:12:31.745Z,7396
2017-10-19T13:13:53.945Z,7448
2017-10-19T13:15:16.164Z,7496
2017-10-19T13:16:38.674Z,7504
2017-10-19T13:18:00.539Z,7468
2017-10-19T13:19:22.777Z,7420
2017-10-19T13:20:45.293Z,7396
2017-10-19T13:22:07.485Z,7372
2017-10-19T13:23:29.660Z,7340
2017-10-19T13:24:51.525Z,7260
2017-10-19T13:26:13.634Z,7160
2017-10-19T13:27:35.500Z,7056
2017-10-19T13:28:57.718Z,6984
2017-10-19T13:30:20.265Z,6880
2017-10-19T13:31:42.458Z,6756
2017-10-19T13:33:04.307Z,6640
2017-10-19T13:34:26.498Z,6552
2017-10-19T13:35:48.832Z,6464
2017-10-19T13:37:10.723Z,6392
2017-10-19T13:38:32.907Z,6320
2017-10-19T13:39:55.113Z,6284
2017-10-19T13:41:17.304Z,6276
2017-10-19T13:42:39.206Z,6244
2017-10-19T13:44:01.553Z,6192
2017-10-19T13:45:23.744Z,6140
2017-10-19T13:46:45.594Z,6112
2017-10-19T13:48:07.484Z,6052
2017-10-19T13:49:29.757Z,6016
2017-10-19T13:50:52.029Z,6012
2017-10-19T13:52:13.903Z,6064
2017-10-19T13:53:36.741Z,6148
2017-10-19T13:54:58.942Z,6196
2017-10-19T13:56:21.174Z,6224
2017-10-19T13:57:43.495Z,6220
2017-10-19T13:59:05.397Z,6220
2017-10-19T14:00:27.645Z,6208
2017-10-19T14:01:49.162Z,6200
2017-10-19T14:03:11.385Z,6172
2017-10-19T14:04:33.912Z,6104
2017-10-19T14:05:56.103Z,6024
2017-10-19T14:07:18.324Z,5956
2017-10-19T14:08:40.221Z,5904
2017-10-19T14:10:02.448Z,5868
2017-10-19T14:11:24.645Z,5856
2017-10-19T14:12:46.919Z,5868
2017-10-19T14:14:09.120Z,5888
2017-10-19T14:15:31.715Z,5888
2017-10-19T14:16:53.911Z,5884
2017-10-19T14:18:16.115Z,5876
2017-10-19T14:19:38.684Z,5860
2017-10-19T14:21:00.948Z,5868
2017-10-19T14:22:23.144Z,5880
2017-10-19T14:23:45.332Z,5916
2017-10-19T14:25:07.522Z,5948
2017-10-19T14:26:30.074Z,5960
2017-10-19T14:27:52.631Z,5948
2017-10-19T14:29:14.747Z,5916
2017-10-19T14:30:37.284Z,5908
2017-10-19T14:32:00.062Z,5864
2017-10-19T14:33:21.923Z,5784
2017-10-19T14:34:44.499Z,5688
2017-10-19T14:36:06.701Z,5584
2017-10-19T14:37:29.114Z,5476
2017-10-19T14:38:50.963Z,5376
2017-10-19T14:40:12.845Z,5304
2017-10-19T14:41:34.721Z,5232
2017-10-19T14:42:56.926Z,5144
2017-10-19T14:44:19.452Z,5072
2017-10-19T14:45:41.685Z,4988
2017-10-19T14:47:03.882Z,4912
2017-10-19T14:48:26.086Z,4852
2017-10-19T14:49:48.709Z,4756
2017-10-19T14:51:11.373Z,4612
2017-10-19T14:52:33.567Z,4452
2017-10-19T14:53:55.754Z,4320
2017-10-19T14:55:18.294Z,4208
2017-10-19T14:56:40.475Z,4120
2017-10-19T14:58:03.018Z,4080
2017-10-19T14:59:25.304Z,4076
2017-10-19T15:00:47.534Z,4080
2017-10-19T15:02:09.380Z,4068
2017-10-19T15:03:31.981Z,4036
2017-10-19T15:04:54.510Z,3996
2017-10-19T15:06:16.796Z,3952
2017-10-19T15:07:39.527Z,3892
2017-10-19T15:09:01.744Z,3828
2017-10-19T15:10:23.622Z,3760
2017-10-19T15:11:45.584Z,3696
2017-10-19T15:13:08.167Z,3624
2017-10-19T15:14:30.370Z,3544
2017-10-19T15:15:52.903Z,3464
2017-10-19T15:17:15.225Z,3368
2017-10-19T15:18:37.765Z,3252
2017-10-19T15:19:59.324Z,3136
2017-10-19T15:21:21.968Z,3020
2017-10-19T15:22:44.177Z,2900
2017-10-19T15:24:06.786Z,2788
2017-10-19T15:25:29.363Z,2676
2017-10-19T15:26:51.715Z,2580
2017-10-19T15:28:13.915Z,2492
2017-10-19T15:29:36.545Z,2420
2017-10-19T15:30:59.132Z,2360
2017-10-19T15:32:21.647Z,2296
2017-10-19T15:33:43.858Z,2240
2017-10-19T15:35:06.375Z,2176
2017-10-19T15:36:28.624Z,2104
2017-10-19T15:37:50.887Z,2008
2017-10-19T15:39:13.477Z,1916
2017-10-19T15:40:35.335Z,1828
2017-10-19T15:41:56.861Z,1732
2017-10-19T15:43:19.501Z,1632
2017-10-19T15:44:41.737Z,1536
2017-10-19T15:46:03.310Z,1448
2017-10-19T15:47:25.847Z,1368
2017-10-19T15:48:48.378Z,1292
2017-10-19T15:50:10.944Z,1224
2017-10-19T15:51:33.232Z,1156
2017-10-19T15:52:55.554Z,1092
2017-10-19T15:54:18.109Z,1024
2017-10-19T15:55:40.316Z,956
2017-10-19T15:57:02.520Z,892
2017-10-19T15:58:24.731Z,824
2017-10-19T15:59:47.259Z,800
2017-10-19T16:01:09.137Z,732
2017-10-19T16:02:31.695Z,672
2017-10-19T16:03:54.500Z,620
2017-10-19T16:05:16.426Z,568
2017-10-19T16:06:39.140Z,520
2017-10-19T16:08:01.692Z,480
2017-10-19T16:09:23.911Z,440
2017-10-19T16:10:46.757Z,404
2017-10-19T16:12:09.295Z,364
2017-10-19T16:13:31.884Z,332
2017-10-19T16:14:53.909Z,304
2017-10-19T16:16:16.364Z,280
2017-10-19T16:17:38.688Z,260
2017-10-19T16:19:00.613Z,244
2017-10-19T16:20:22.852Z,224
2017-10-19T16:21:45.345Z,208
2017-10-19T16:23:07.425Z,192
2017-10-19T16:24:29.849Z,180
2017-10-19T16:25:52.615Z,160
2017-10-19T16:27:15.143Z,144
2017-10-19T16:28:37.343Z,124
2017-10-19T16:29:59.894Z,104
2017-10-19T16:31:21.775Z,92
2017-10-19T16:32:44.015Z,84
2017-10-19T16:34:05.900Z,76
2017-10-19T16:35:28.437Z,68
2017-10-19T16:36:50.299Z,64
2017-10-19T16:38:12.525Z,60
2017-10-19T16:39:35.066Z,56
2017-10-19T16:40:57.371Z,52
2017-10-19T16:42:19.018Z,48
2017-10-19T16:43:41.336Z,48
2017-10-19T16:45:03.556Z,48
2017-10-19T16:46:25.936Z,44
2017-10-19T16:47:48.144Z,44
2017-10-19T16:49:10.030Z,44
2017-10-19T16:50:32.573Z,44
2017-10-19T16:51:54.433Z,44
2017-10-19T16:53:16.673Z,44
2017-10-19T16:54:39.197Z,40
2017-10-19T16:56:01.709Z,44
2017-10-19T16:57:23.301Z,44
2017-10-19T16:58:45.266Z,44
2017-10-19T17:00:07.450Z,44
2017-10-19T17:01:30.003Z,44
2017-10-19T17:02:52.239Z,44
2017-10-19T17:04:14.773Z,40
2017-10-19T17:05:37.046Z,40
2017-10-19T17:06:59.292Z,40
2017-10-19T17:08:21.516Z,40
2017-10-19T17:09:44.060Z,40
2017-10-19T17:11:06.545Z,40
2017-10-19T17:12:28.403Z,44
2017-10-19T17:13:50.285Z,44
2017-10-19T17:15:12.872Z,40
2017-10-19T17:16:35.082Z,44
2017-10-19T17:17:57.377Z,40
2017-10-19T17:19:19.620Z,40
2017-10-19T17:20:42.040Z,44
2017-10-19T17:22:04.343Z,40
2017-10-19T17:23:26.895Z,40
2017-10-19T17:24:49.432Z,40
2017-10-19T17:26:11.644Z,40
2017-10-19T17:27:34.207Z,44
2017-10-19T17:28:56.462Z,44
2017-10-19T17:30:19.014Z,40
2017-10-19T17:31:41.193Z,40
2017-10-19T17:33:03.389Z,40
2017-10-19T17:34:26.037Z,40
2017-10-19T17:35:48.757Z,40
2017-10-19T17:37:11.294Z,40
2017-10-19T17:38:33.868Z,40
2017-10-19T17:39:56.086Z,40
2017-10-19T17:41:18.604Z,44
2017-10-19T17:42:40.123Z,44
2017-10-19T17:44:02.903Z,44
2017-10-19T17:45:25.222Z,44
2017-10-19T17:46:47.797Z,0
2017-10-19T17:48:10.020Z,0
2017-10-19T17:49:32.276Z,0
2017-10-19T17:50:54.795Z,0
2017-10-19T17:52:17.446Z,0
2017-10-19T17:53:39.317Z,0
2017-10-19T17:55:01.193Z,0
2017-10-19T17:56:23.754Z,0
2017-10-19T17:57:45.978Z,0
2017-10-19T17:59:08.205Z,0
2017-10-19T18:00:30.779Z,0
2017-10-19T18:01:53.045Z,0
2017-10-19T18:03:15.623Z,0
2017-10-19T18:04:37.918Z,0
2017-10-19T18:06:00.544Z,0
2017-10-19T18:07:22.093Z,0
2017-10-19T18:08:44.298Z,0
2017-10-19T18:10:06.856Z,0
2017-10-19T18:11:29.394Z,0
2017-10-19T18:12:51.954Z,0
2017-10-19T18:14:13.840Z,0
2017-10-19T18:15:36.063Z,0
2017-10-19T18:16:58.620Z,40
2017-10-19T18:18:20.507Z,40
2017-10-19T18:19:42.730Z,40
2017-10-19T18:21:04.936Z,44
2017-10-19T18:22:27.527Z,44
2017-10-19T18:23:49.863Z,44
2017-10-19T18:25:12.446Z,40
2017-10-19T18:26:34.661Z,40
2017-10-19T18:27:56.565Z,40
2017-10-19T18:29:18.773Z,44
2017-10-19T18:30:41.549Z,40
2017-10-19T18:32:03.620Z,40
2017-10-19T18:33:25.846Z,40
2017-10-19T18:34:48.454Z,0
2017-10-19T18:36:10.707Z,0
2017-10-19T18:37:33.246Z,0
2017-10-19T18:38:55.444Z,0
2017-10-19T18:40:18.133Z,0
2017-10-19T18:41:40.704Z,0
2017-10-19T18:43:03.284Z,0
2017-10-19T18:44:25.146Z,0
2017-10-19T18:45:47.705Z,0
2017-10-19T18:47:09.610Z,0
2017-10-19T18:48:31.577Z,0
2017-10-19T18:49:54.363Z,0
2017-10-19T18:51:16.253Z,0
2017-10-19T18:52:38.577Z,0
2017-10-19T18:54:01.171Z,0
2017-10-19T18:55:23.749Z,0
2017-10-19T18:56:45.629Z,0
2017-10-19T18:58:08.308Z,0
2017-10-19T18:59:31.092Z,0
2017-10-19T19:00:52.658Z,0
2017-10-19T19:02:15.239Z,44